createdAt,value
2023-01-28T00:01:33.822Z,4.53
2023-01-28T00:04:01.423Z,4.67
2023-01-28T00:06:27.920Z,4.53
2023-01-28T00:08:55.813Z,4.90
2023-01-28T00:11:22.587Z,5.33
2023-01-28T00:13:53.342Z,5.27
2023-01-28T00:16:20.527Z,4.60
2023-01-28T00:18:46.971Z,5.10
2023-01-28T00:21:15.153Z,5.07
2023-01-28T00:23:43.120Z,4.90
2023-01-28T00:26:14.513Z,5.07
2023-01-28T00:28:43.817Z,4.70
2023-01-28T00:31:17.210Z,4.90
2023-01-28T00:33:48.265Z,4.30
2023-01-28T00:36:15.669Z,4.13
2023-01-28T00:38:42.943Z,4.40
2023-01-28T00:41:15.329Z,4.50
2023-01-28T00:43:42.686Z,5.07
2023-01-28T00:46:11.602Z,5.17
2023-01-28T00:48:40.241Z,4.60
2023-01-28T00:51:07.820Z,4.87
2023-01-28T00:53:36.093Z,5.10
2023-01-28T00:56:03.200Z,4.80
2023-01-28T00:58:30.536Z,5.13
2023-01-28T01:00:57.036Z,4.17
2023-01-28T01:03:23.473Z,4.47
2023-01-28T01:05:49.894Z,4.37
2023-01-28T01:08:16.306Z,4.30
2023-01-28T01:10:42.777Z,4.07
2023-01-28T01:13:10.150Z,4.37
2023-01-28T01:15:36.716Z,4.67
2023-01-28T01:18:03.687Z,4.50
2023-01-28T01:20:33.404Z,4.57
2023-01-28T01:22:59.906Z,4.70
2023-01-28T01:25:26.608Z,5.03
2023-01-28T01:27:53.269Z,5.37
2023-01-28T01:30:21.269Z,4.87
2023-01-28T01:32:47.734Z,4.43
2023-01-28T01:35:14.876Z,5.17
2023-01-28T01:37:44.848Z,5.20
2023-01-28T01:40:12.171Z,5.00
2023-01-28T01:42:38.654Z,5.27
2023-01-28T01:45:14.329Z,5.03
2023-01-28T01:48:03.865Z,5.00
2023-01-28T01:50:39.513Z,5.37
2023-01-28T01:53:17.691Z,5.40
2023-01-28T01:55:48.661Z,5.50
2023-01-28T01:58:19.629Z,5.87
2023-01-28T02:00:47.267Z,5.03
2023-01-28T02:03:16.924Z,5.23
2023-01-28T02:05:43.737Z,5.70
2023-01-28T02:08:22.424Z,5.53
2023-01-28T02:10:54.379Z,5.13
2023-01-28T02:13:24.468Z,5.53
2023-01-28T02:15:51.953Z,4.93
2023-01-28T02:18:18.484Z,4.63
2023-01-28T02:21:01.426Z,4.93
2023-01-28T02:23:52.976Z,5.10
2023-01-28T02:26:37.070Z,4.67
2023-01-28T02:29:28.341Z,4.83
2023-01-28T02:32:05.232Z,4.70
2023-01-28T02:34:42.586Z,5.03
2023-01-28T02:37:15.856Z,4.27
2023-01-28T02:39:49.772Z,4.23
2023-01-28T02:42:25.511Z,4.73
2023-01-28T02:44:52.723Z,4.23
2023-01-28T02:47:38.795Z,4.47
2023-01-28T02:50:18.176Z,4.27
2023-01-28T02:53:22.468Z,4.10
2023-01-28T02:56:14.503Z,4.70
2023-01-28T02:59:30.879Z,4.70
2023-01-28T03:02:36.640Z,4.43
2023-01-28T03:05:16.000Z,4.90
2023-01-28T03:07:42.924Z,4.30
2023-01-28T03:10:16.378Z,4.17
2023-01-28T03:13:03.577Z,4.60
2023-01-28T03:15:56.607Z,4.77
2023-01-28T03:18:48.011Z,4.40
2023-01-28T03:21:46.816Z,4.50
2023-01-28T03:24:39.555Z,4.33
2023-01-28T03:27:44.866Z,4.03
2023-01-28T03:30:45.808Z,4.13
2023-01-28T03:33:39.041Z,4.03
2023-01-28T03:36:26.410Z,4.00
2023-01-28T03:38:53.199Z,4.10
2023-01-28T03:41:22.454Z,4.10
2023-01-28T03:43:50.628Z,4.00
2023-01-28T03:46:18.426Z,4.57
2023-01-28T03:48:45.515Z,4.50
2023-01-28T03:51:14.617Z,4.10
2023-01-28T03:53:41.033Z,3.93
2023-01-28T03:56:08.832Z,4.00
2023-01-28T03:58:56.533Z,4.20
2023-01-28T04:01:24.162Z,4.03
2023-01-28T04:03:51.550Z,3.67
2023-01-28T04:06:28.907Z,3.93
2023-01-28T04:09:35.062Z,3.70
2023-01-28T04:12:23.894Z,4.27
2023-01-28T04:14:52.547Z,4.03
2023-01-28T04:17:26.410Z,4.03
2023-01-28T04:19:52.919Z,3.70
2023-01-28T04:22:20.792Z,3.70
2023-01-28T04:24:47.321Z,3.50
2023-01-28T04:27:16.860Z,3.63
2023-01-28T04:29:43.490Z,3.20
2023-01-28T04:32:32.341Z,3.90
2023-01-28T04:35:03.745Z,3.50
2023-01-28T04:38:08.763Z,3.90
2023-01-28T04:40:50.807Z,3.67
2023-01-28T04:43:25.846Z,3.50
2023-01-28T04:46:16.027Z,3.40
2023-01-28T04:48:52.930Z,3.63
2023-01-28T04:51:31.854Z,3.50
2023-01-28T04:54:16.897Z,3.43
2023-01-28T04:56:43.600Z,3.77
2023-01-28T04:59:10.142Z,3.57
2023-01-28T05:01:37.764Z,3.40
2023-01-28T05:04:05.718Z,3.30
2023-01-28T05:06:35.470Z,3.70
2023-01-28T05:09:24.507Z,3.23
2023-01-28T05:11:52.147Z,3.30
2023-01-28T05:14:18.689Z,3.30
2023-01-28T05:16:50.523Z,3.23
2023-01-28T05:19:18.182Z,3.50
2023-01-28T05:21:46.320Z,3.60
2023-01-28T05:24:36.222Z,3.80
2023-01-28T05:27:03.466Z,3.90
2023-01-28T05:29:29.919Z,3.60
2023-01-28T05:31:56.476Z,3.60
2023-01-28T05:34:23.439Z,3.37
2023-01-28T05:36:50.702Z,3.23
2023-01-28T05:39:35.528Z,3.43
2023-01-28T05:42:02.043Z,3.70
2023-01-28T05:44:29.111Z,3.50
2023-01-28T05:47:12.190Z,3.43
2023-01-28T05:49:46.485Z,3.60
2023-01-28T05:52:37.039Z,4.10
2023-01-28T05:55:05.189Z,3.40
2023-01-28T05:57:31.608Z,3.23
2023-01-28T05:59:58.151Z,3.80
2023-01-28T06:02:24.693Z,3.50
2023-01-28T06:04:54.965Z,3.97
2023-01-28T06:07:21.534Z,3.60
2023-01-28T06:09:48.480Z,3.20
2023-01-28T06:12:18.241Z,3.37
2023-01-28T06:15:22.896Z,3.20
2023-01-28T06:18:00.099Z,3.60
2023-01-28T06:20:28.883Z,3.27
2023-01-28T06:22:57.270Z,3.30
2023-01-28T06:25:23.967Z,3.67
2023-01-28T06:27:50.488Z,3.47
2023-01-28T06:30:17.419Z,3.50
2023-01-28T06:32:44.696Z,3.70
2023-01-28T06:35:11.952Z,3.60
2023-01-28T06:37:39.567Z,3.63
2023-01-28T06:40:06.590Z,4.07
2023-01-28T06:42:33.035Z,3.60
2023-01-28T06:44:59.450Z,3.70
2023-01-28T06:47:25.883Z,3.30
2023-01-28T06:49:52.335Z,3.87
2023-01-28T06:52:18.746Z,3.50
2023-01-28T06:54:45.263Z,3.80
2023-01-28T06:57:11.725Z,3.40
2023-01-28T06:59:38.249Z,3.40
2023-01-28T07:02:04.685Z,3.90
2023-01-28T07:04:31.661Z,3.83
2023-01-28T07:06:58.169Z,3.67
2023-01-28T07:09:24.583Z,3.57
2023-01-28T07:11:51.006Z,3.97
2023-01-28T07:14:17.434Z,3.90
2023-01-28T07:16:43.847Z,3.87
2023-01-28T07:19:10.512Z,3.53
2023-01-28T07:21:36.918Z,4.37
2023-01-28T07:24:05.322Z,4.00
2023-01-28T07:26:32.071Z,3.97
2023-01-28T07:28:58.515Z,4.20
2023-01-28T07:31:25.023Z,3.83
2023-01-28T07:33:51.524Z,4.33
2023-01-28T07:36:17.959Z,3.70
2023-01-28T07:38:44.629Z,3.87
2023-01-28T07:41:11.237Z,3.50
2023-01-28T07:43:37.659Z,4.50
2023-01-28T07:46:04.193Z,3.83
2023-01-28T07:48:30.906Z,3.77
2023-01-28T07:51:25.686Z,3.30
2023-01-28T07:53:52.474Z,3.67
2023-01-28T07:56:18.917Z,3.40
2023-01-28T07:58:45.315Z,3.17
2023-01-28T08:01:11.812Z,3.57
2023-01-28T08:03:38.247Z,3.80
2023-01-28T08:06:05.072Z,3.43
2023-01-28T08:08:32.018Z,3.43
2023-01-28T08:10:58.444Z,3.57
2023-01-28T08:13:24.889Z,4.00
2023-01-28T08:15:55.584Z,3.67
2023-01-28T08:18:22.157Z,3.10
2023-01-28T08:20:48.569Z,3.37
2023-01-28T08:23:19.547Z,3.73
2023-01-28T08:25:47.240Z,3.60
2023-01-28T08:28:15.636Z,3.77
2023-01-28T08:30:42.718Z,3.30
2023-01-28T08:33:11.811Z,3.50
2023-01-28T08:35:38.370Z,3.60
2023-01-28T08:38:06.659Z,3.53
2023-01-28T08:40:33.957Z,3.00
2023-01-28T08:43:00.781Z,3.37
2023-01-28T08:45:28.504Z,3.90
2023-01-28T08:48:03.390Z,3.53
2023-01-28T08:50:35.911Z,4.03
2023-01-28T08:53:05.127Z,3.70
2023-01-28T08:55:31.588Z,3.53
2023-01-28T08:58:01.557Z,3.40
2023-01-28T09:00:28.057Z,3.43
2023-01-28T09:02:54.716Z,3.63
2023-01-28T09:05:21.528Z,4.10
2023-01-28T09:07:49.093Z,3.67
2023-01-28T09:10:16.604Z,3.53
2023-01-28T09:12:44.203Z,3.70
2023-01-28T09:15:11.598Z,3.73
2023-01-28T09:17:38.177Z,4.00
2023-01-28T09:20:06.158Z,3.93
2023-01-28T09:22:32.801Z,3.93
2023-01-28T09:24:59.237Z,4.00
2023-01-28T09:27:25.687Z,3.77
2023-01-28T09:29:52.155Z,4.27
2023-01-28T09:32:18.573Z,4.27
2023-01-28T09:34:44.992Z,3.60
2023-01-28T09:37:11.962Z,4.00
2023-01-28T09:39:38.710Z,3.30
2023-01-28T09:42:22.816Z,3.90
2023-01-28T09:45:13.427Z,3.97
2023-01-28T09:47:41.829Z,4.20
2023-01-28T09:50:16.158Z,3.90
2023-01-28T09:52:43.234Z,3.87
2023-01-28T09:55:19.400Z,3.60
2023-01-28T09:57:52.152Z,4.33
2023-01-28T10:00:24.521Z,3.70
2023-01-28T10:03:03.301Z,3.63
2023-01-28T10:05:46.354Z,4.33
2023-01-28T10:08:27.520Z,3.90
2023-01-28T10:11:17.783Z,4.33
2023-01-28T10:13:57.163Z,4.20
2023-01-28T10:16:50.367Z,3.70
2023-01-28T10:19:23.752Z,3.90
2023-01-28T10:21:57.014Z,4.03
2023-01-28T10:24:31.322Z,3.77
2023-01-28T10:26:58.246Z,3.83
2023-01-28T10:29:29.391Z,4.10
2023-01-28T10:32:03.000Z,4.10
2023-01-28T10:34:29.421Z,3.93
2023-01-28T10:36:57.654Z,3.97
2023-01-28T10:39:26.032Z,3.60
2023-01-28T10:41:58.238Z,3.57
2023-01-28T10:44:32.501Z,4.00
2023-01-28T10:47:01.932Z,3.97
2023-01-28T10:49:31.343Z,4.27
2023-01-28T10:51:58.549Z,3.60
2023-01-28T10:54:27.314Z,3.80
2023-01-28T10:56:57.362Z,3.57
2023-01-28T10:59:29.890Z,4.00
2023-01-28T11:02:00.893Z,3.80
2023-01-28T11:04:33.198Z,3.70
2023-01-28T11:07:04.745Z,3.63
2023-01-28T11:09:34.194Z,4.10
2023-01-28T11:12:21.109Z,3.87
2023-01-28T11:14:53.118Z,3.77
2023-01-28T11:17:24.470Z,3.73
2023-01-28T11:19:53.571Z,3.47
2023-01-28T11:22:28.816Z,3.83
2023-01-28T11:24:55.521Z,3.60
2023-01-28T11:27:29.591Z,3.90
2023-01-28T11:30:04.177Z,3.30
2023-01-28T11:32:31.115Z,3.97
2023-01-28T11:34:59.110Z,3.83
2023-01-28T11:37:27.677Z,3.10
2023-01-28T11:40:19.159Z,3.57
2023-01-28T11:42:49.726Z,3.60
2023-01-28T11:45:25.714Z,3.57
2023-01-28T11:48:24.300Z,3.60
2023-01-28T11:51:04.269Z,3.77
2023-01-28T11:54:08.547Z,3.67
2023-01-28T11:57:16.850Z,4.27
2023-01-28T12:00:14.202Z,3.50
2023-01-28T12:02:53.500Z,3.83
2023-01-28T12:05:28.839Z,3.63
2023-01-28T12:08:16.548Z,3.50
2023-01-28T12:11:00.412Z,4.00
2023-01-28T12:13:48.574Z,3.80
2023-01-28T12:16:41.627Z,3.73
2023-01-28T12:19:16.701Z,3.43
2023-01-28T12:21:55.198Z,3.60
2023-01-28T12:24:57.303Z,3.27
2023-01-28T12:27:51.757Z,3.93
2023-01-28T12:30:19.284Z,3.70
2023-01-28T12:32:48.405Z,3.37
2023-01-28T12:35:24.838Z,3.60
2023-01-28T12:37:54.257Z,3.17
2023-01-28T12:40:38.751Z,3.30
2023-01-28T12:43:19.318Z,3.40
2023-01-28T12:46:02.835Z,3.77
2023-01-28T12:48:48.153Z,2.90
2023-01-28T12:51:18.190Z,3.67
2023-01-28T12:53:59.532Z,3.20
2023-01-28T12:56:31.975Z,3.30
2023-01-28T12:59:02.525Z,3.27
2023-01-28T13:01:58.076Z,3.30
2023-01-28T13:04:52.604Z,3.37
2023-01-28T13:07:35.845Z,3.50
2023-01-28T13:10:10.983Z,3.13
2023-01-28T13:12:40.434Z,3.40
2023-01-28T13:15:13.404Z,3.83
2023-01-28T13:17:40.051Z,3.60
2023-01-28T13:20:17.391Z,3.17
2023-01-28T13:22:44.428Z,3.20
2023-01-28T13:25:23.829Z,3.70
2023-01-28T13:28:05.537Z,3.00
2023-01-28T13:30:34.627Z,3.40
2023-01-28T13:33:26.049Z,2.93
2023-01-28T13:35:55.355Z,3.07
2023-01-28T13:38:22.628Z,3.43
2023-01-28T13:41:06.575Z,3.30
2023-01-28T13:43:32.978Z,3.37
2023-01-28T13:46:03.314Z,3.60
2023-01-28T13:48:54.464Z,3.70
2023-01-28T13:51:23.132Z,3.33
2023-01-28T13:54:03.866Z,3.77
2023-01-28T13:56:59.462Z,3.40
2023-01-28T13:59:49.432Z,3.90
2023-01-28T14:02:49.928Z,3.67
2023-01-28T14:05:36.361Z,3.20
2023-01-28T14:08:17.825Z,3.50
2023-01-28T14:11:06.007Z,3.53
2023-01-28T14:14:02.222Z,3.40
2023-01-28T14:16:53.821Z,3.33
2023-01-28T14:19:28.282Z,3.23
2023-01-28T14:21:55.847Z,3.63
2023-01-28T14:24:23.136Z,3.00
2023-01-28T14:27:05.903Z,3.43
2023-01-28T14:29:48.018Z,3.27
2023-01-28T14:32:27.049Z,3.50
2023-01-28T14:34:54.730Z,3.37
2023-01-28T14:37:25.749Z,3.23
2023-01-28T14:39:57.827Z,3.20
2023-01-28T14:42:32.571Z,3.47
2023-01-28T14:45:05.789Z,2.60
2023-01-28T14:48:22.319Z,2.93
2023-01-28T14:51:24.226Z,3.10
2023-01-28T14:54:02.416Z,2.80
2023-01-28T14:56:59.060Z,3.17
2023-01-28T14:59:31.738Z,2.90
2023-01-28T15:01:59.684Z,3.20
2023-01-28T15:04:33.591Z,3.27
2023-01-28T15:07:17.550Z,2.70
2023-01-28T15:09:44.830Z,2.73
2023-01-28T15:12:12.379Z,3.00
2023-01-28T15:14:40.224Z,2.77
2023-01-28T15:17:12.185Z,2.87
2023-01-28T15:19:40.120Z,2.83
2023-01-28T15:22:08.095Z,2.80
2023-01-28T15:24:36.077Z,2.77
2023-01-28T15:27:03.000Z,2.83
2023-01-28T15:29:36.286Z,2.60
2023-01-28T15:32:04.417Z,2.77
2023-01-28T15:34:31.022Z,2.80
2023-01-28T15:36:58.959Z,2.40
2023-01-28T15:39:27.807Z,2.70
2023-01-28T15:41:59.172Z,3.00
2023-01-28T15:44:32.655Z,2.50
2023-01-28T15:47:01.008Z,2.30
2023-01-28T15:49:31.866Z,2.47
2023-01-28T15:51:58.657Z,2.77
2023-01-28T15:54:25.883Z,2.50
2023-01-28T15:56:52.741Z,2.50
2023-01-28T15:59:26.468Z,2.67
2023-01-28T16:02:12.389Z,2.60
2023-01-28T16:04:38.789Z,2.23
2023-01-28T16:07:05.706Z,2.20
2023-01-28T16:09:34.272Z,2.70
2023-01-28T16:12:02.908Z,2.57
2023-01-28T16:14:34.389Z,2.33
2023-01-28T16:17:00.968Z,2.73
2023-01-28T16:19:41.322Z,2.90
2023-01-28T16:22:18.035Z,3.00
2023-01-28T16:24:52.860Z,2.97
2023-01-28T16:27:25.546Z,2.90
2023-01-28T16:29:52.174Z,2.73
2023-01-28T16:32:36.798Z,2.50
2023-01-28T16:35:10.866Z,2.80
2023-01-28T16:37:39.404Z,2.73
2023-01-28T16:40:09.146Z,2.80
2023-01-28T16:42:35.594Z,3.03
2023-01-28T16:45:03.057Z,2.60
2023-01-28T16:47:29.452Z,2.53
2023-01-28T16:49:55.889Z,2.60
2023-01-28T16:52:22.384Z,2.77
2023-01-28T16:54:49.009Z,2.77
2023-01-28T16:57:18.651Z,2.07
2023-01-28T16:59:45.461Z,2.53
2023-01-28T17:02:13.242Z,2.20
2023-01-28T17:04:39.750Z,2.20
2023-01-28T17:07:06.894Z,2.40
2023-01-28T17:09:33.374Z,2.27
2023-01-28T17:12:01.837Z,2.13
2023-01-28T17:14:28.613Z,2.27
2023-01-28T17:16:55.027Z,2.93
2023-01-28T17:19:21.455Z,2.63
2023-01-28T17:21:47.898Z,2.03
2023-01-28T17:24:14.411Z,2.70
2023-01-28T17:26:40.895Z,2.37
2023-01-28T17:29:07.896Z,2.27
2023-01-28T17:31:37.256Z,2.43
2023-01-28T17:34:06.770Z,2.80
2023-01-28T17:36:33.327Z,2.30
2023-01-28T17:38:59.728Z,2.77
2023-01-28T17:41:26.145Z,2.53
2023-01-28T17:43:54.460Z,2.47
2023-01-28T17:46:22.499Z,2.43
2023-01-28T17:48:48.916Z,2.53
2023-01-28T17:51:18.958Z,2.83
2023-01-28T17:53:50.560Z,2.77
2023-01-28T17:56:21.719Z,2.50
2023-01-28T17:58:56.214Z,2.60
2023-01-28T18:01:24.568Z,2.30
2023-01-28T18:03:51.042Z,2.67
2023-01-28T18:06:17.974Z,2.60
2023-01-28T18:08:45.035Z,2.60
2023-01-28T18:11:14.564Z,2.73
2023-01-28T18:13:42.134Z,2.73
2023-01-28T18:16:14.832Z,2.33
2023-01-28T18:18:41.782Z,2.13
2023-01-28T18:21:18.684Z,2.30
2023-01-28T18:23:45.092Z,2.20
2023-01-28T18:26:11.511Z,2.43
2023-01-28T18:28:38.013Z,2.47
2023-01-28T18:31:06.576Z,2.40
2023-01-28T18:33:33.789Z,2.40
2023-01-28T18:36:00.237Z,2.37
2023-01-28T18:38:26.714Z,2.70
2023-01-28T18:40:56.836Z,2.90
2023-01-28T18:43:23.324Z,2.33
2023-01-28T18:45:52.015Z,2.30
2023-01-28T18:48:18.878Z,2.20
2023-01-28T18:50:52.958Z,2.57
2023-01-28T18:53:20.343Z,2.77
2023-01-28T18:55:46.943Z,2.80
2023-01-28T18:58:13.354Z,2.60
2023-01-28T19:00:40.078Z,2.67
2023-01-28T19:03:06.744Z,2.70
2023-01-28T19:05:37.145Z,2.50
2023-01-28T19:08:09.375Z,2.63
2023-01-28T19:10:36.177Z,2.63
2023-01-28T19:13:03.189Z,2.77
2023-01-28T19:15:30.672Z,2.63
2023-01-28T19:17:57.359Z,2.93
2023-01-28T19:20:23.896Z,2.90
2023-01-28T19:22:50.492Z,2.67
2023-01-28T19:25:17.506Z,3.47
2023-01-28T19:27:44.056Z,3.30
2023-01-28T19:30:10.926Z,2.77
2023-01-28T19:32:37.430Z,2.70
2023-01-28T19:35:04.232Z,2.90
2023-01-28T19:37:30.713Z,3.17
2023-01-28T19:39:57.135Z,3.20
2023-01-28T19:42:23.878Z,2.97
2023-01-28T19:44:51.266Z,3.30
2023-01-28T19:47:17.696Z,3.40
2023-01-28T19:49:44.139Z,2.80
2023-01-28T19:52:10.929Z,3.43
2023-01-28T19:54:37.598Z,3.03
2023-01-28T19:57:04.046Z,3.60
2023-01-28T19:59:30.641Z,3.13
2023-01-28T20:01:57.130Z,2.90
2023-01-28T20:04:23.599Z,3.03
2023-01-28T20:06:50.272Z,3.30
2023-01-28T20:09:19.743Z,3.43
2023-01-28T20:11:46.444Z,2.87
2023-01-28T20:14:14.960Z,2.87
2023-01-28T20:16:41.920Z,3.00
2023-01-28T20:19:14.154Z,3.30
2023-01-28T20:21:41.007Z,3.30
2023-01-28T20:24:07.819Z,3.23
2023-01-28T20:26:37.490Z,3.13
2023-01-28T20:29:06.636Z,3.13
2023-01-28T20:31:33.693Z,2.67
2023-01-28T20:34:00.826Z,2.70
2023-01-28T20:36:27.407Z,2.60
2023-01-28T20:38:53.870Z,2.50
2023-01-28T20:41:22.672Z,2.53
2023-01-28T20:43:50.546Z,2.87
2023-01-28T20:46:20.814Z,3.20
2023-01-28T20:48:48.024Z,3.27
2023-01-28T20:51:16.619Z,3.30
2023-01-28T20:53:44.681Z,3.00
2023-01-28T20:56:17.545Z,3.30
2023-01-28T20:58:44.892Z,2.77
2023-01-28T21:01:19.797Z,3.10
2023-01-28T21:03:46.784Z,3.07
2023-01-28T21:06:13.349Z,3.17
2023-01-28T21:08:39.802Z,3.30
2023-01-28T21:11:07.302Z,2.97
2023-01-28T21:13:34.679Z,3.13
2023-01-28T21:16:01.212Z,2.97
2023-01-28T21:18:27.915Z,3.07
2023-01-28T21:20:54.993Z,3.70
2023-01-28T21:23:24.933Z,3.37
2023-01-28T21:25:52.393Z,2.97
2023-01-28T21:28:19.564Z,3.30
2023-01-28T21:30:46.379Z,3.20
2023-01-28T21:33:13.089Z,3.77
2023-01-28T21:35:40.908Z,2.73
2023-01-28T21:38:07.897Z,3.20
2023-01-28T21:40:35.389Z,3.40
2023-01-28T21:43:02.079Z,3.37
2023-01-28T21:45:28.642Z,3.17
2023-01-28T21:47:55.225Z,3.07
2023-01-28T21:50:22.497Z,3.07
2023-01-28T21:52:50.358Z,3.03
2023-01-28T21:55:17.869Z,3.20
2023-01-28T21:57:44.329Z,2.80
2023-01-28T22:00:12.455Z,3.07
2023-01-28T22:02:39.378Z,3.40
2023-01-28T22:05:06.233Z,3.60
2023-01-28T22:07:32.840Z,3.63
2023-01-28T22:09:59.271Z,3.30
2023-01-28T22:12:27.401Z,3.77
2023-01-28T22:14:53.980Z,3.90
2023-01-28T22:17:20.530Z,3.70
2023-01-28T22:19:48.175Z,3.60
2023-01-28T22:22:15.778Z,4.10
2023-01-28T22:24:42.566Z,3.70
2023-01-28T22:27:09.082Z,4.33
2023-01-28T22:29:35.477Z,4.77
2023-01-28T22:32:04.650Z,8.77
2023-01-28T22:34:31.308Z,5.03
2023-01-28T22:36:57.733Z,4.37
2023-01-28T22:39:24.264Z,3.50
2023-01-28T22:41:50.763Z,3.33
2023-01-28T22:44:19.633Z,3.47
2023-01-28T22:46:47.122Z,3.50
2023-01-28T22:49:14.990Z,3.90
2023-01-28T22:51:42.411Z,3.60
2023-01-28T22:54:11.265Z,4.17
2023-01-28T22:56:38.281Z,4.30
2023-01-28T22:59:04.879Z,4.07
2023-01-28T23:01:32.373Z,4.20
2023-01-28T23:03:59.237Z,4.63
2023-01-28T23:06:27.462Z,4.13
2023-01-28T23:08:54.605Z,4.70
2023-01-28T23:11:27.295Z,4.90
2023-01-28T23:14:15.647Z,3.90
2023-01-28T23:17:00.873Z,4.10
2023-01-28T23:19:46.092Z,4.20
2023-01-28T23:22:34.373Z,4.43
2023-01-28T23:25:00.862Z,4.27
2023-01-28T23:27:27.323Z,4.57
2023-01-28T23:29:53.856Z,4.33
2023-01-28T23:32:21.282Z,3.80
2023-01-28T23:34:47.823Z,4.10
2023-01-28T23:37:14.582Z,4.00
2023-01-28T23:39:41.552Z,3.83
2023-01-28T23:42:17.572Z,4.23
2023-01-28T23:44:44.534Z,3.37
2023-01-28T23:47:11.444Z,3.40
2023-01-28T23:49:38.512Z,4.57
2023-01-28T23:52:06.308Z,4.27
2023-01-28T23:54:33.531Z,3.70
2023-01-28T23:57:00.975Z,3.47
2023-01-28T23:59:27.703Z,3.90
